Ash, North Carolina
Current Conditions -  °F | °C
As of 3:53 AM on Friday 31 Oct 2014 (Local Time) from KCRE Reporting Station
Overcast Overcast  
Wind Chill: 54°   Ceiling: 4700
Heat Index: 54°   Visibility: 10mi
Dew Point: 51°   Wind: 7mph
Humidity: 90%   Direction: 30°NNE
Pressure: 29.9"   Gusts: NA
Location:  34.04°N, 78.52°W
Report Text: KCRE 310753Z AUTO 03006KT 10SM OVC047 12/11 A2990 RMK AO1 SLP126 T01220106
Loading
Personal Weather Stations






























Interactive Weather Map New forecast layout! Learn more

10-Day Weather Forecast

Advertisements
Track Severe Weather on mobile